Fairbanks International, AK

9:45 PM AKST on February 06, 2016 (GMT -0900)
19th and Kennedy | | Change Station
CLOSE
Current Station
Personal Weather Station
Location: Fairbanks, AK
Elevation: 440 ft
Nearby Weather Stations

Elev 440 ft 64.83 °N, 147.80 °W | Updated 4 minutes ago

Scattered Clouds
Scattered Clouds
0.3 °F
Feels Like 0 °F
N
0.0
Wind Variable Wind from North

Today
High -- | Low -- °F
--% Chance of Precip.
Yesterday
High -- | Low -- °F
Precip. -- in
Pressure 29.96 in
Visibility 10.0 miles
Clouds Scattered Clouds 9000 ft
Scattered Clouds 18000 ft
Windchill 0 °F
Dew Point -1 °F
Humidity 96%
Rainfall 0.00 in
Snow Depth Not available.
9:21 AM 4:50 PM
Waning Crescent, 2% visible
METAR PAFA 070553Z 03003KT 10SM SCT090 SCT180 M20/M22 A2992 RMK AO2 SLP146 T12001217 11122 21206 52017 $
Pressure 29.96 in
Visibility 10.0 miles
Clouds Scattered Clouds 9000 ft
Scattered Clouds 18000 ft
Windchill 0 °F
Dew Point -1 °F
Humidity 96%
Rainfall 0.00 in
Snow Depth Not available.
9:21 AM 4:50 PM
Waning Crescent, 2% visible
METAR PAFA 070553Z 03003KT 10SM SCT090 SCT180 M20/M22 A2992 RMK AO2 SLP146 T12001217 11122 21206 52017 $

10-Day Weather Forecast

Almanac

Astronomy

Feb. 06, 2016 Rise Set
Actual Time
Civil Twilight
Nautical Twilight
Astronomical Twilight
Moon
Length of Visible Light
Length of Day
Tomorrow will be .
, % of the Moon is Illuminated

Today's Extremes

State Highs State Lows

Community

WunderPhotos

Upload Photos

1,891,174 photos uploaded!

WunderBlog® & News

Nearby

Air Quality

  Air Quality AQ Index Pollutant
Not available.

Snow Depth

Station Depth Elevation

Earthquake Activity

City Distance Mag. Time & Date
Minimum magnitude displayed is 2.5.

Coastal Water Temperatures

Place Temperature

Stations

Nearby Weather Stations

Station Location Temp. Windchill Dew Point Humidity Wind Precip. Elev Updated Type
                   

Watches & Warnings

There are currently no watches in effect.